createdAt,value
2019-03-15T00:00:04.653Z,99155.56
2019-03-15T00:02:33.954Z,99167.59
2019-03-15T00:05:03.029Z,99171.08
2019-03-15T00:07:31.649Z,99175.33
2019-03-15T00:10:00.625Z,99182.67
2019-03-15T00:12:29.617Z,99177.02
2019-03-15T00:14:58.346Z,99177.02
2019-03-15T00:17:27.299Z,99196.42
2019-03-15T00:19:56.189Z,99174.44
2019-03-15T00:22:25.491Z,99174.44
2019-03-15T00:24:55.201Z,99194.64
2019-03-15T00:27:24.094Z,99184.78
2019-03-15T00:29:52.738Z,99187.00
2019-03-15T00:32:21.671Z,99187.00
2019-03-15T00:34:50.577Z,99193.90
2019-03-15T00:37:19.558Z,99196.91
2019-03-15T00:39:48.228Z,99196.91
2019-03-15T00:42:16.916Z,99198.19
2019-03-15T00:44:45.820Z,99205.06
2019-03-15T00:47:14.820Z,99201.63
2019-03-15T00:49:43.433Z,99212.36
2019-03-15T00:52:12.445Z,99211.52
2019-03-15T00:54:41.430Z,99206.80
2019-03-15T00:57:10.687Z,99216.69
2019-03-15T00:59:39.579Z,99216.69
2019-03-15T01:02:08.559Z,99221.02
2019-03-15T01:04:37.178Z,99221.02
2019-03-15T01:07:05.818Z,99223.66
2019-03-15T01:09:35.262Z,99223.22
2019-03-15T01:12:04.301Z,99223.67
2019-03-15T01:14:33.231Z,99221.94
2019-03-15T01:17:01.858Z,99225.84
2019-03-15T01:19:30.819Z,99234.88
2019-03-15T01:22:00.114Z,99221.13
2019-03-15T01:24:29.005Z,99221.13
2019-03-15T01:26:58.200Z,99241.34
2019-03-15T01:29:26.834Z,99241.34
2019-03-15T01:31:55.792Z,99229.77
2019-03-15T01:34:25.077Z,99222.00
2019-03-15T01:36:53.700Z,99223.74
2019-03-15T01:39:22.971Z,99220.75
2019-03-15T01:41:51.861Z,99220.75
2019-03-15T01:44:20.749Z,99223.77
2019-03-15T01:46:49.659Z,99225.91
2019-03-15T01:49:18.532Z,99224.60
2019-03-15T01:51:47.731Z,99230.20
2019-03-15T01:54:17.242Z,99233.22
2019-03-15T01:56:45.853Z,99234.94
2019-03-15T01:59:15.121Z,99234.94
2019-03-15T02:01:44.010Z,99242.24
2019-03-15T02:04:12.875Z,99234.92
2019-03-15T02:06:42.137Z,99234.06
2019-03-15T02:09:10.734Z,99247.84
2019-03-15T02:11:39.691Z,99246.53
2019-03-15T02:14:08.543Z,99250.41
2019-03-15T02:16:37.470Z,99254.70
2019-03-15T02:19:06.105Z,99264.14
2019-03-15T02:21:35.035Z,99258.98
2019-03-15T02:24:04.253Z,99270.17
2019-03-15T02:26:32.868Z,99263.72
2019-03-15T02:29:01.599Z,99271.88
2019-03-15T02:31:30.836Z,99264.14
2019-03-15T02:34:02.099Z,99272.77
2019-03-15T02:36:31.062Z,99280.48
2019-03-15T02:39:00.096Z,99280.48
2019-03-15T02:41:28.698Z,99290.38
2019-03-15T02:43:57.736Z,99290.38
2019-03-15T02:46:26.945Z,99305.41
2019-03-15T02:48:55.940Z,99301.11
2019-03-15T02:51:24.847Z,99308.44
2019-03-15T02:53:54.127Z,99301.97
2019-03-15T02:56:23.129Z,99322.19
2019-03-15T02:58:51.751Z,99318.30
2019-03-15T03:01:21.037Z,99332.50
2019-03-15T03:03:49.930Z,99332.92
2019-03-15T03:06:18.885Z,99332.92
2019-03-15T03:08:47.778Z,99341.52
2019-03-15T03:11:16.414Z,99347.11
2019-03-15T03:13:45.365Z,99347.11
2019-03-15T03:16:14.023Z,99347.95
2019-03-15T03:18:42.934Z,99362.99
2019-03-15T03:21:11.930Z,99353.97
2019-03-15T03:23:41.228Z,99353.97
2019-03-15T03:26:10.213Z,99367.70
2019-03-15T03:28:39.073Z,99360.00
2019-03-15T03:31:07.780Z,99373.31
2019-03-15T03:33:36.995Z,99379.77
2019-03-15T03:36:05.896Z,99386.64
2019-03-15T03:38:34.881Z,99386.64
2019-03-15T03:41:03.876Z,99380.61
2019-03-15T03:43:32.517Z,99389.65
2019-03-15T03:46:01.187Z,99389.22
2019-03-15T03:48:30.451Z,99389.22
2019-03-15T03:51:00.228Z,99411.98
2019-03-15T03:53:29.113Z,99415.88
2019-03-15T03:55:58.044Z,99418.45
2019-03-15T03:58:27.204Z,99430.06
2019-03-15T04:00:55.961Z,99425.76
2019-03-15T04:03:25.329Z,99433.92
2019-03-15T04:05:54.530Z,99454.11
2019-03-15T04:08:23.724Z,99454.55
2019-03-15T04:10:52.819Z,99454.55
2019-03-15T04:13:21.815Z,99448.52
2019-03-15T04:15:50.915Z,99448.52
2019-03-15T04:18:19.800Z,99467.87
2019-03-15T04:20:48.431Z,99473.02
2019-03-15T04:23:17.697Z,99473.45
2019-03-15T04:25:46.990Z,99485.06
2019-03-15T04:28:15.883Z,99485.06
2019-03-15T04:30:44.904Z,99501.39
2019-03-15T04:33:13.531Z,99509.98
2019-03-15T04:35:42.473Z,99521.16
2019-03-15T04:38:11.136Z,99521.16
2019-03-15T04:40:40.314Z,99534.50
2019-03-15T04:43:08.959Z,99531.89
2019-03-15T04:45:37.919Z,99531.89
2019-03-15T04:48:06.553Z,99539.63
2019-03-15T04:50:35.800Z,99539.63
2019-03-15T04:53:04.716Z,99550.38
2019-03-15T04:55:34.103Z,99555.11
2019-03-15T04:58:03.507Z,99549.52
2019-03-15T05:00:32.699Z,99559.83
2019-03-15T05:03:01.567Z,99558.11
2019-03-15T05:05:30.242Z,99573.16
2019-03-15T05:07:59.480Z,99562.88
2019-03-15T05:10:28.111Z,99562.88
2019-03-15T05:12:57.033Z,99574.91
2019-03-15T05:15:26.045Z,99574.91
2019-03-15T05:17:54.936Z,99568.89
2019-03-15T05:20:23.671Z,99572.75
2019-03-15T05:22:52.721Z,99570.20
2019-03-15T05:25:21.287Z,99575.81
2019-03-15T05:27:49.992Z,99584.84
2019-03-15T05:30:18.883Z,99574.53
2019-03-15T05:32:47.514Z,99574.53
2019-03-15T05:35:16.124Z,99600.34
2019-03-15T05:37:45.039Z,99602.09
2019-03-15T05:40:14.053Z,99590.05
2019-03-15T05:42:43.031Z,99585.34
2019-03-15T05:45:12.023Z,99572.39
2019-03-15T05:47:41.033Z,99572.39
2019-03-15T05:50:10.621Z,99578.41
2019-03-15T05:52:39.528Z,99595.64
2019-03-15T05:55:10.063Z,99584.45
2019-03-15T05:57:38.706Z,99596.93
2019-03-15T06:00:09.260Z,99596.93
2019-03-15T06:02:38.162Z,99614.13
2019-03-15T06:05:08.918Z,99614.13
2019-03-15T06:07:38.325Z,99610.26
2019-03-15T06:10:08.194Z,99613.27
2019-03-15T06:12:37.103Z,99616.30
2019-03-15T06:15:06.402Z,99602.55
2019-03-15T06:17:35.289Z,99602.55
2019-03-15T06:20:06.436Z,99605.11
2019-03-15T06:22:34.917Z,99623.20
2019-03-15T06:25:04.010Z,99619.30
2019-03-15T06:27:33.313Z,99619.30
2019-03-15T06:30:01.971Z,99641.70
2019-03-15T06:32:30.899Z,99633.52
2019-03-15T06:35:00.166Z,99639.95
2019-03-15T06:37:29.128Z,99622.77
2019-03-15T06:39:58.089Z,99643.41
2019-03-15T06:42:27.076Z,99643.41
2019-03-15T06:44:58.167Z,99647.71
2019-03-15T06:47:26.289Z,99647.71
2019-03-15T06:49:55.198Z,99648.59
2019-03-15T06:52:24.179Z,99641.28
2019-03-15T06:54:53.071Z,99641.28
2019-03-15T06:57:21.730Z,99646.43
2019-03-15T06:59:51.072Z,99655.46
2019-03-15T07:02:19.806Z,99652.03
2019-03-15T07:04:48.443Z,99641.72
2019-03-15T07:07:17.399Z,99663.20
2019-03-15T07:09:46.286Z,99645.13
2019-03-15T07:12:15.199Z,99652.03
2019-03-15T07:14:44.191Z,99646.00
2019-03-15T07:17:13.177Z,99646.00
2019-03-15T07:19:42.142Z,99660.20
2019-03-15T07:22:11.074Z,99642.56
2019-03-15T07:24:43.465Z,99646.88
2019-03-15T07:27:13.293Z,99652.44
2019-03-15T07:29:41.369Z,99648.13
2019-03-15T07:32:10.629Z,99648.13
2019-03-15T07:34:39.624Z,99656.31
2019-03-15T07:37:08.261Z,99650.27
2019-03-15T07:39:37.201Z,99654.59
2019-03-15T07:42:06.947Z,99654.16
2019-03-15T07:44:36.015Z,99654.16
2019-03-15T07:47:05.005Z,99655.05
2019-03-15T07:49:33.670Z,99657.62
2019-03-15T07:52:03.930Z,99649.87
2019-03-15T07:54:38.097Z,99654.61
2019-03-15T07:57:03.465Z,99652.03
2019-03-15T07:59:32.125Z,99652.03
2019-03-15T08:02:01.119Z,99653.76
2019-03-15T08:04:30.727Z,99655.45
2019-03-15T08:06:59.364Z,99659.34
2019-03-15T08:09:28.303Z,99652.00
2019-03-15T08:11:57.311Z,99646.80
2019-03-15T08:14:26.259Z,99654.07
2019-03-15T08:16:55.731Z,99663.59
2019-03-15T08:19:24.441Z,99663.59
2019-03-15T08:21:56.451Z,99648.41
2019-03-15T08:24:24.016Z,99657.03
2019-03-15T08:26:53.200Z,99662.19
2019-03-15T08:29:22.746Z,99666.48
2019-03-15T08:31:52.011Z,99658.63
2019-03-15T08:34:20.912Z,99640.07
2019-03-15T08:36:49.894Z,99634.43
2019-03-15T08:39:19.195Z,99642.12
2019-03-15T08:41:48.112Z,99647.14
2019-03-15T08:44:16.757Z,99640.92
2019-03-15T08:46:45.420Z,99643.98
2019-03-15T08:49:14.368Z,99643.83
2019-03-15T08:51:42.994Z,99640.81
2019-03-15T08:54:11.676Z,99646.59
2019-03-15T08:56:40.644Z,99628.86
2019-03-15T08:59:09.821Z,99627.51
2019-03-15T09:01:38.783Z,99621.94
2019-03-15T09:04:07.698Z,99627.42
2019-03-15T09:06:40.697Z,99611.33
2019-03-15T09:09:08.468Z,99623.05
2019-03-15T09:11:37.063Z,99610.46
2019-03-15T09:14:05.888Z,99603.19
2019-03-15T09:16:34.529Z,99615.58
2019-03-15T09:19:03.192Z,99622.51
2019-03-15T09:21:32.091Z,99609.16
2019-03-15T09:24:00.737Z,99620.37
2019-03-15T09:26:29.700Z,99623.95
2019-03-15T09:28:58.971Z,99629.13
2019-03-15T09:31:27.608Z,99629.16
2019-03-15T09:33:56.548Z,99653.28
2019-03-15T09:36:25.441Z,99644.28
2019-03-15T09:38:54.425Z,99650.72
2019-03-15T09:41:31.819Z,99631.31
2019-03-15T09:43:53.666Z,99621.80
2019-03-15T09:46:22.949Z,99623.91
2019-03-15T09:48:51.961Z,99605.77
2019-03-15T09:51:20.605Z,99613.13
2019-03-15T09:53:49.237Z,99604.13
2019-03-15T09:56:18.104Z,99588.59
2019-03-15T09:58:47.103Z,99601.96
2019-03-15T10:01:33.702Z,99599.00
2019-03-15T10:03:46.467Z,99588.25
2019-03-15T10:06:19.373Z,99574.82
2019-03-15T10:08:46.656Z,99577.39
2019-03-15T10:11:15.650Z,99565.34
2019-03-15T10:13:44.286Z,99561.41
2019-03-15T10:16:12.948Z,99563.45
2019-03-15T10:18:42.447Z,99572.52
2019-03-15T10:21:11.316Z,99558.29
2019-03-15T10:23:40.927Z,99555.75
2019-03-15T10:26:10.224Z,99552.25
2019-03-15T10:28:38.826Z,99545.33
2019-03-15T10:31:08.108Z,99560.15
2019-03-15T10:33:49.602Z,99557.97
2019-03-15T10:36:07.548Z,99552.75
2019-03-15T10:38:36.525Z,99548.56
2019-03-15T10:41:05.259Z,99539.52
2019-03-15T10:43:34.518Z,99533.12
2019-03-15T10:46:06.016Z,99506.63
2019-03-15T10:48:34.167Z,99506.11
2019-03-15T10:51:03.033Z,99507.73
2019-03-15T10:53:32.228Z,99494.52
2019-03-15T10:56:00.867Z,99492.35
2019-03-15T10:58:29.486Z,99476.00
2019-03-15T11:00:58.132Z,99476.97
2019-03-15T11:03:27.082Z,99487.73
2019-03-15T11:05:55.721Z,99512.36
2019-03-15T11:08:24.452Z,99473.09
2019-03-15T11:10:53.652Z,99474.80
2019-03-15T11:13:22.381Z,99442.27
2019-03-15T11:15:51.642Z,99445.31
2019-03-15T11:18:20.307Z,99436.86
2019-03-15T11:20:49.231Z,99428.84
2019-03-15T11:23:18.215Z,99439.98
2019-03-15T11:25:47.195Z,99413.21
2019-03-15T11:28:15.821Z,99425.20
2019-03-15T11:30:44.778Z,99401.66
2019-03-15T11:33:14.448Z,99394.19
2019-03-15T11:35:43.166Z,99408.17
2019-03-15T11:38:11.836Z,99394.78
2019-03-15T11:40:40.749Z,99381.79
2019-03-15T11:43:09.951Z,99378.31
2019-03-15T11:45:39.153Z,99376.14
2019-03-15T11:48:09.125Z,99368.96
2019-03-15T11:50:37.944Z,99372.72
2019-03-15T11:53:06.830Z,99382.48
2019-03-15T11:55:36.048Z,99331.50
2019-03-15T11:58:04.738Z,99347.23
2019-03-15T12:00:33.623Z,99328.84
2019-03-15T12:03:02.516Z,99309.45
2019-03-15T12:05:31.193Z,99308.25
2019-03-15T12:08:00.811Z,99314.66
2019-03-15T12:10:29.796Z,99317.74
2019-03-15T12:12:58.470Z,99310.67
2019-03-15T12:15:27.096Z,99302.41
2019-03-15T12:17:56.070Z,99303.91
2019-03-15T12:20:24.712Z,99263.84
2019-03-15T12:22:53.624Z,99255.28
2019-03-15T12:25:22.265Z,99230.21
2019-03-15T12:27:51.226Z,99221.61
2019-03-15T12:30:19.947Z,99220.88
2019-03-15T12:32:48.810Z,99232.67
2019-03-15T12:35:17.476Z,99225.83
2019-03-15T12:37:46.101Z,99235.80
2019-03-15T12:40:14.898Z,99206.28
2019-03-15T12:42:44.274Z,99201.68
2019-03-15T12:45:13.080Z,99172.80
2019-03-15T12:47:41.789Z,99173.76
2019-03-15T12:50:10.838Z,99169.96
2019-03-15T12:52:47.162Z,99169.69
2019-03-15T12:55:10.668Z,99176.75
2019-03-15T12:57:39.886Z,99178.59
2019-03-15T13:00:11.424Z,99169.21
2019-03-15T13:02:40.121Z,99159.81
2019-03-15T13:05:09.129Z,99168.09
2019-03-15T13:07:38.691Z,99141.92
2019-03-15T13:10:10.395Z,99140.24
2019-03-15T13:12:39.528Z,99140.24
2019-03-15T13:15:10.294Z,99114.96
2019-03-15T13:17:39.092Z,99092.99
2019-03-15T13:20:09.108Z,99104.19
2019-03-15T13:22:37.733Z,99077.09
2019-03-15T13:25:07.175Z,99087.37
2019-03-15T13:27:36.389Z,99065.81
2019-03-15T13:30:05.956Z,99063.28
2019-03-15T13:32:34.623Z,99025.45
2019-03-15T13:35:03.243Z,99025.45
2019-03-15T13:37:32.159Z,98998.73
2019-03-15T13:40:01.358Z,99005.67
2019-03-15T13:42:30.348Z,99035.41
2019-03-15T13:44:59.858Z,98993.17
2019-03-15T13:47:28.534Z,98990.67
2019-03-15T13:49:57.452Z,98983.30
2019-03-15T13:52:26.834Z,98983.30
2019-03-15T13:54:55.760Z,98994.10
2019-03-15T13:57:24.730Z,98982.47
2019-03-15T13:59:54.026Z,98965.71
2019-03-15T14:02:23.337Z,98959.69
2019-03-15T14:04:52.326Z,98935.56
2019-03-15T14:07:20.938Z,98977.80
2019-03-15T14:09:49.868Z,98947.14
2019-03-15T14:12:18.809Z,98947.14
2019-03-15T14:14:47.782Z,98924.73
2019-03-15T14:17:16.780Z,98917.38
2019-03-15T14:19:46.390Z,98905.23
2019-03-15T14:22:15.138Z,98897.45
2019-03-15T14:24:44.081Z,98897.45
2019-03-15T14:27:12.736Z,98903.30
2019-03-15T14:29:41.646Z,98943.20
2019-03-15T14:32:10.848Z,98908.27
2019-03-15T14:34:39.738Z,98929.98
2019-03-15T14:37:10.302Z,98924.30
2019-03-15T14:39:39.064Z,98924.30
2019-03-15T14:42:08.063Z,98908.61
2019-03-15T14:44:37.042Z,98912.81
2019-03-15T14:47:05.736Z,98900.95
2019-03-15T14:49:37.967Z,98881.30
2019-03-15T14:52:05.413Z,98878.45
2019-03-15T14:54:34.019Z,98874.38
2019-03-15T14:57:03.219Z,98884.91
2019-03-15T14:59:31.884Z,98884.12
2019-03-15T15:02:00.819Z,98884.12
2019-03-15T15:04:29.454Z,98857.30
2019-03-15T15:06:58.425Z,98914.19
2019-03-15T15:09:27.387Z,98842.95
2019-03-15T15:11:56.891Z,98844.25
2019-03-15T15:14:25.581Z,98842.95
2019-03-15T15:16:54.348Z,98850.31
2019-03-15T15:19:23.275Z,98849.94
2019-03-15T15:21:53.029Z,98866.81
2019-03-15T15:24:22.014Z,98863.11
2019-03-15T15:26:50.615Z,98890.56
2019-03-15T15:29:22.032Z,98853.02
2019-03-15T15:31:50.478Z,98882.19
2019-03-15T15:34:19.129Z,98901.89
2019-03-15T15:36:47.822Z,98848.61
2019-03-15T15:41:44.617Z,98837.44
2019-03-15T15:44:13.235Z,98867.88
2019-03-15T15:46:42.743Z,98858.93
2019-03-15T15:49:12.003Z,98874.23
2019-03-15T15:51:41.016Z,98860.44
2019-03-15T15:54:09.990Z,98858.92
2019-03-15T15:56:39.207Z,98870.11
2019-03-15T15:59:08.135Z,98848.95
2019-03-15T16:01:37.383Z,98875.00
2019-03-15T16:04:06.273Z,98871.28
2019-03-15T16:06:35.264Z,98868.62
2019-03-15T16:09:04.874Z,98883.88
2019-03-15T16:11:34.070Z,98887.81
2019-03-15T16:14:02.965Z,98887.81
2019-03-15T16:16:31.853Z,98856.48
2019-03-15T16:19:00.779Z,98887.13
2019-03-15T16:21:29.411Z,98869.66
2019-03-15T16:23:58.611Z,98864.97
2019-03-15T16:26:27.519Z,98852.72
2019-03-15T16:28:56.433Z,98858.23
2019-03-15T16:31:26.330Z,98854.52
2019-03-15T16:33:55.001Z,98870.77
2019-03-15T16:36:23.903Z,98855.52
2019-03-15T16:38:52.904Z,98866.88
2019-03-15T16:41:21.662Z,98854.05
2019-03-15T16:43:50.279Z,98851.16
2019-03-15T16:46:19.331Z,98862.11
2019-03-15T16:48:48.017Z,98863.52
2019-03-15T16:51:19.700Z,98873.36
2019-03-15T16:53:47.679Z,98870.84
2019-03-15T16:56:19.912Z,98886.17
2019-03-15T16:58:47.118Z,98866.27
2019-03-15T17:01:15.729Z,98868.64
2019-03-15T17:03:44.396Z,98871.95
2019-03-15T17:06:13.265Z,98885.75
2019-03-15T17:08:42.270Z,98884.11
2019-03-15T17:11:11.251Z,98892.06
2019-03-15T17:13:40.136Z,98899.12
2019-03-15T17:16:08.912Z,98916.85
2019-03-15T17:18:38.174Z,98892.42
2019-03-15T17:21:07.434Z,98895.39
2019-03-15T17:23:36.350Z,98906.62
2019-03-15T17:26:05.742Z,98932.09
2019-03-15T17:28:35.029Z,98906.55
2019-03-15T17:31:09.919Z,98909.58
2019-03-15T17:33:39.435Z,98891.20
2019-03-15T17:36:08.359Z,98912.70
2019-03-15T17:38:36.986Z,98890.47
2019-03-15T17:41:06.042Z,98911.17
2019-03-15T17:43:35.240Z,98901.20
2019-03-15T17:46:04.747Z,98904.47
2019-03-15T17:48:34.277Z,98893.72
2019-03-15T17:51:03.269Z,98893.72
2019-03-15T17:53:32.244Z,98917.82
2019-03-15T17:56:00.870Z,98956.69
2019-03-15T17:58:29.499Z,98944.84
2019-03-15T18:00:58.568Z,98920.32
2019-03-15T18:03:27.800Z,98936.70
2019-03-15T18:05:56.467Z,98938.66
2019-03-15T18:08:25.378Z,98913.89
2019-03-15T18:10:54.518Z,98932.55
2019-03-15T18:13:23.447Z,98926.13
2019-03-15T18:15:52.357Z,98915.34
2019-03-15T18:18:21.364Z,99008.01
2019-03-15T18:20:50.244Z,98903.70
2019-03-15T18:23:19.149Z,98962.02
2019-03-15T18:25:48.130Z,98952.94
2019-03-15T18:28:17.034Z,98947.35
2019-03-15T18:30:45.715Z,98926.61
2019-03-15T18:33:14.801Z,98940.72
2019-03-15T18:35:43.443Z,98940.36
2019-03-15T18:38:12.789Z,98979.09
2019-03-15T18:40:42.400Z,98960.64
2019-03-15T18:43:11.026Z,98974.34
2019-03-15T18:45:39.628Z,98944.63
2019-03-15T18:48:08.974Z,98975.20
2019-03-15T18:50:38.072Z,98959.57
2019-03-15T18:53:06.700Z,98951.95
2019-03-15T18:55:35.653Z,98983.41
2019-03-15T18:58:04.944Z,98972.56
2019-03-15T19:00:33.673Z,98973.03
2019-03-15T19:03:02.931Z,98982.94
2019-03-15T19:05:31.570Z,99035.64
2019-03-15T19:08:00.543Z,98988.08
2019-03-15T19:10:29.531Z,98976.77
2019-03-15T19:12:58.533Z,98993.16
2019-03-15T19:15:27.494Z,99000.52
2019-03-15T19:17:56.211Z,99132.27
2019-03-15T19:20:24.907Z,99022.73
2019-03-15T19:22:53.988Z,99014.55
2019-03-15T19:25:22.635Z,99022.00
2019-03-15T19:27:51.276Z,99071.73
2019-03-15T19:30:20.742Z,99071.73
2019-03-15T19:32:49.459Z,99033.08
2019-03-15T19:35:18.551Z,99047.45
2019-03-15T19:37:47.511Z,99052.74
2019-03-15T19:40:16.276Z,99052.74
2019-03-15T19:42:45.768Z,99059.78
2019-03-15T19:45:14.889Z,99084.78
2019-03-15T19:47:43.917Z,99084.78
2019-03-15T19:50:14.004Z,99094.63
2019-03-15T19:52:43.013Z,99070.07
2019-03-15T19:55:12.722Z,99070.07
2019-03-15T19:57:42.024Z,99077.88
2019-03-15T20:00:12.827Z,99077.88
2019-03-15T20:02:42.264Z,99097.44
2019-03-15T20:05:11.035Z,99097.44
2019-03-15T20:07:39.770Z,99114.64
2019-03-15T20:10:10.267Z,99118.94
2019-03-15T20:12:38.892Z,99118.94
2019-03-15T20:15:07.955Z,99131.39
2019-03-15T20:17:37.556Z,99131.39
2019-03-15T20:20:06.748Z,99126.27
2019-03-15T20:22:35.973Z,99195.98
2019-03-15T20:25:05.493Z,99166.23
2019-03-15T20:27:34.757Z,99198.13
2019-03-15T20:30:03.669Z,99198.13
2019-03-15T20:32:32.312Z,99182.19
2019-03-15T20:35:00.923Z,99110.75
2019-03-15T20:37:29.577Z,99145.56
2019-03-15T20:39:58.228Z,99189.91
2019-03-15T20:42:27.501Z,99189.91
2019-03-15T20:44:56.792Z,99176.57
2019-03-15T20:47:25.419Z,99188.23
2019-03-15T20:49:54.682Z,99188.22
2019-03-15T20:52:23.368Z,99188.22
2019-03-15T20:54:52.670Z,99193.40
2019-03-15T20:57:21.563Z,99213.63
2019-03-15T20:59:51.099Z,99207.64
2019-03-15T21:02:20.676Z,99207.64
2019-03-15T21:04:49.338Z,99206.80
2019-03-15T21:07:17.971Z,99220.19
2019-03-15T21:09:46.691Z,99228.81
2019-03-15T21:12:15.433Z,99261.11
2019-03-15T21:14:44.725Z,99264.91
2019-03-15T21:17:13.331Z,99264.91
2019-03-15T21:19:42.005Z,99257.18
2019-03-15T21:22:10.995Z,99279.56
2019-03-15T21:24:40.184Z,99284.28
2019-03-15T21:27:08.922Z,99284.28
2019-03-15T21:29:38.171Z,99297.63
2019-03-15T21:32:06.977Z,99284.28
2019-03-15T21:34:35.626Z,99261.92
2019-03-15T21:37:04.331Z,99316.59
2019-03-15T21:39:33.227Z,99299.33
2019-03-15T21:42:01.852Z,99299.33
2019-03-15T21:44:31.114Z,99293.74
2019-03-15T21:46:59.737Z,99338.51
2019-03-15T21:49:28.700Z,99320.88
2019-03-15T21:51:57.336Z,99320.88
2019-03-15T21:54:25.939Z,99341.09
2019-03-15T21:56:54.616Z,99341.09
2019-03-15T21:59:23.538Z,99349.30
2019-03-15T22:01:52.198Z,99339.83
2019-03-15T22:04:20.860Z,99357.91
2019-03-15T22:06:50.104Z,99349.31
2019-03-15T22:09:19.663Z,99377.75
2019-03-15T22:11:49.388Z,99349.78
2019-03-15T22:14:18.616Z,99372.55
2019-03-15T22:16:47.246Z,99372.55
2019-03-15T22:19:16.220Z,99390.16
2019-03-15T22:21:46.355Z,99408.34
2019-03-15T22:24:14.998Z,99408.34
2019-03-15T22:26:43.642Z,99417.77
2019-03-15T22:29:12.585Z,99453.96
2019-03-15T22:31:41.481Z,99416.92
2019-03-15T22:34:10.131Z,99424.27
2019-03-15T22:36:39.840Z,99447.53
2019-03-15T22:39:08.871Z,99447.53
2019-03-15T22:41:37.511Z,99458.75
2019-03-15T22:44:06.449Z,99458.75
2019-03-15T22:46:35.840Z,99471.25
2019-03-15T22:49:05.151Z,99471.25
2019-03-15T22:51:34.043Z,99475.55
2019-03-15T22:54:02.933Z,99475.55
2019-03-15T22:56:31.824Z,99491.91
2019-03-15T22:59:00.755Z,99491.91
2019-03-15T23:01:30.714Z,99496.63
2019-03-15T23:03:59.842Z,99491.48
2019-03-15T23:06:28.749Z,99500.95
2019-03-15T23:08:57.718Z,99522.03
2019-03-15T23:11:26.373Z,99500.96
2019-03-15T23:13:55.644Z,99514.75
2019-03-15T23:16:24.904Z,99552.63
2019-03-15T23:18:53.899Z,99552.63
2019-03-15T23:21:22.517Z,99519.50
2019-03-15T23:23:51.581Z,99574.55
2019-03-15T23:26:20.218Z,99542.70
2019-03-15T23:28:48.859Z,99555.62
2019-03-15T23:31:17.886Z,99547.46
2019-03-15T23:33:47.147Z,99547.46
2019-03-15T23:36:15.764Z,99584.45
2019-03-15T23:38:45.023Z,99599.11
2019-03-15T23:41:13.674Z,99587.92
2019-03-15T23:43:42.613Z,99587.92
2019-03-15T23:46:11.370Z,99599.95
2019-03-15T23:48:40.408Z,99599.08
2019-03-15T23:51:09.033Z,99599.08
2019-03-15T23:53:37.982Z,99601.25
2019-03-15T23:56:07.265Z,99625.77
2019-03-15T23:58:36.269Z,99608.94
